sensor_id;sensor_type;location;lat;lon;timestamp;pressure;altitude;pressure_sealevel;temperature
21336;BMP180;10826;52.536;13.432;2022-12-07T00:01:17;100715.00;;;11.20
21336;BMP180;10826;52.536;13.432;2022-12-07T00:03:45;100705.00;;;11.20
21336;BMP180;10826;52.536;13.432;2022-12-07T00:06:14;100695.00;;;11.20
21336;BMP180;10826;52.536;13.432;2022-12-07T00:08:40;100686.00;;;11.20
21336;BMP180;10826;52.536;13.432;2022-12-07T00:11:16;100716.00;;;11.20
21336;BMP180;10826;52.536;13.432;2022-12-07T00:13:43;100706.00;;;11.20
21336;BMP180;10826;52.536;13.432;2022-12-07T00:16:14;100686.00;;;11.30
21336;BMP180;10826;52.536;13.432;2022-12-07T00:18:41;100690.00;;;11.20
21336;BMP180;10826;52.536;13.432;2022-12-07T00:21:14;100688.00;;;11.30
21336;BMP180;10826;52.536;13.432;2022-12-07T00:23:43;100691.00;;;11.20
21336;BMP180;10826;52.536;13.432;2022-12-07T00:26:28;100684.00;;;11.30
21336;BMP180;10826;52.536;13.432;2022-12-07T00:28:58;100702.00;;;11.30
21336;BMP180;10826;52.536;13.432;2022-12-07T00:31:28;100696.00;;;11.20
21336;BMP180;10826;52.536;13.432;2022-12-07T00:33:57;100652.00;;;11.20
21336;BMP180;10826;52.536;13.432;2022-12-07T00:36:25;100676.00;;;11.20
21336;BMP180;10826;52.536;13.432;2022-12-07T00:38:51;100685.00;;;11.10
21336;BMP180;10826;52.536;13.432;2022-12-07T00:41:20;100655.00;;;11.20
21336;BMP180;10826;52.536;13.432;2022-12-07T00:43:48;100664.00;;;11.10
21336;BMP180;10826;52.536;13.432;2022-12-07T00:46:16;100680.00;;;11.10
21336;BMP180;10826;52.536;13.432;2022-12-07T00:48:42;100679.00;;;11.10
21336;BMP180;10826;52.536;13.432;2022-12-07T00:51:11;100675.00;;;11.10
21336;BMP180;10826;52.536;13.432;2022-12-07T00:53:38;100673.00;;;11.00
21336;BMP180;10826;52.536;13.432;2022-12-07T00:56:13;100670.00;;;11.00
21336;BMP180;10826;52.536;13.432;2022-12-07T00:58:39;100671.00;;;11.00
21336;BMP180;10826;52.536;13.432;2022-12-07T01:01:07;100668.00;;;11.00
21336;BMP180;10826;52.536;13.432;2022-12-07T01:03:33;100664.00;;;10.90
21336;BMP180;10826;52.536;13.432;2022-12-07T01:06:03;100660.00;;;10.90
21336;BMP180;10826;52.536;13.432;2022-12-07T01:08:30;100664.00;;;10.80
21336;BMP180;10826;52.536;13.432;2022-12-07T01:11:05;100658.00;;;10.80
21336;BMP180;10826;52.536;13.432;2022-12-07T01:13:33;100656.00;;;10.80
21336;BMP180;10826;52.536;13.432;2022-12-07T01:16:03;100660.00;;;10.80
21336;BMP180;10826;52.536;13.432;2022-12-07T01:18:32;100645.00;;;10.70
21336;BMP180;10826;52.536;13.432;2022-12-07T01:21:11;100653.00;;;10.70
21336;BMP180;10826;52.536;13.432;2022-12-07T01:23:38;100648.00;;;10.70
21336;BMP180;10826;52.536;13.432;2022-12-07T01:26:09;100646.00;;;10.70
21336;BMP180;10826;52.536;13.432;2022-12-07T01:28:35;100602.00;;;10.70
21336;BMP180;10826;52.536;13.432;2022-12-07T01:31:13;100636.00;;;10.70
21336;BMP180;10826;52.536;13.432;2022-12-07T01:33:45;100648.00;;;10.80
21336;BMP180;10826;52.536;13.432;2022-12-07T01:36:28;100649.00;;;10.80
21336;BMP180;10826;52.536;13.432;2022-12-07T01:38:58;100633.00;;;10.80
21336;BMP180;10826;52.536;13.432;2022-12-07T01:41:29;100625.00;;;10.80
21336;BMP180;10826;52.536;13.432;2022-12-07T01:46:55;100641.00;;;10.80
21336;BMP180;10826;52.536;13.432;2022-12-07T01:52:17;100635.00;;;10.80
21336;BMP180;10826;52.536;13.432;2022-12-07T01:54:50;100619.00;;;10.80
21336;BMP180;10826;52.536;13.432;2022-12-07T01:57:17;100618.00;;;10.80
21336;BMP180;10826;52.536;13.432;2022-12-07T01:59:49;100618.00;;;10.90
21336;BMP180;10826;52.536;13.432;2022-12-07T02:02:49;100612.00;;;10.90
21336;BMP180;10826;52.536;13.432;2022-12-07T02:05:18;100609.00;;;10.90
21336;BMP180;10826;52.536;13.432;2022-12-07T02:07:46;100608.00;;;11.00
21336;BMP180;10826;52.536;13.432;2022-12-07T02:10:18;100611.00;;;11.00
21336;BMP180;10826;52.536;13.432;2022-12-07T02:12:49;100613.00;;;11.00
21336;BMP180;10826;52.536;13.432;2022-12-07T02:15:18;100607.00;;;11.00
21336;BMP180;10826;52.536;13.432;2022-12-07T02:29:43;100605.00;;;11.00
21336;BMP180;10826;52.536;13.432;2022-12-07T02:32:24;100599.00;;;11.00
21336;BMP180;10826;52.536;13.432;2022-12-07T02:40:44;100580.00;;;10.90
21336;BMP180;10826;52.536;13.432;2022-12-07T02:43:23;100580.00;;;10.90
21336;BMP180;10826;52.536;13.432;2022-12-07T02:45:53;100574.00;;;10.80
21336;BMP180;10826;52.536;13.432;2022-12-07T02:48:22;100570.00;;;10.80
21336;BMP180;10826;52.536;13.432;2022-12-07T02:50:54;100562.00;;;10.70
21336;BMP180;10826;52.536;13.432;2022-12-07T02:53:34;100556.00;;;10.70
21336;BMP180;10826;52.536;13.432;2022-12-07T02:56:24;100553.00;;;10.70
21336;BMP180;10826;52.536;13.432;2022-12-07T03:05:50;100562.00;;;10.70
21336;BMP180;10826;52.536;13.432;2022-12-07T03:08:32;100562.00;;;10.70
21336;BMP180;10826;52.536;13.432;2022-12-07T03:11:06;100542.00;;;10.70
21336;BMP180;10826;52.536;13.432;2022-12-07T03:14:11;100543.00;;;10.70
21336;BMP180;10826;52.536;13.432;2022-12-07T03:17:10;100527.00;;;10.70
21336;BMP180;10826;52.536;13.432;2022-12-07T03:19:40;100522.00;;;10.70
21336;BMP180;10826;52.536;13.432;2022-12-07T03:22:10;100523.00;;;10.70
21336;BMP180;10826;52.536;13.432;2022-12-07T03:24:52;100529.00;;;10.80
21336;BMP180;10826;52.536;13.432;2022-12-07T03:27:22;100532.00;;;10.80
21336;BMP180;10826;52.536;13.432;2022-12-07T03:30:03;100528.00;;;10.80
21336;BMP180;10826;52.536;13.432;2022-12-07T03:32:54;100523.00;;;10.90
21336;BMP180;10826;52.536;13.432;2022-12-07T03:35:47;100517.00;;;10.90
21336;BMP180;10826;52.536;13.432;2022-12-07T03:38:33;100494.00;;;10.90
21336;BMP180;10826;52.536;13.432;2022-12-07T03:41:34;100492.00;;;10.90
21336;BMP180;10826;52.536;13.432;2022-12-07T03:44:01;100488.00;;;10.90
21336;BMP180;10826;52.536;13.432;2022-12-07T03:47:01;100476.00;;;11.00
21336;BMP180;10826;52.536;13.432;2022-12-07T03:52:39;100460.00;;;10.90
21336;BMP180;10826;52.536;13.432;2022-12-07T03:55:26;100461.00;;;11.00
21336;BMP180;10826;52.536;13.432;2022-12-07T03:58:00;100432.00;;;11.00
21336;BMP180;10826;52.536;13.432;2022-12-07T04:00:26;100455.00;;;11.00
21336;BMP180;10826;52.536;13.432;2022-12-07T04:02:53;100450.00;;;11.00
21336;BMP180;10826;52.536;13.432;2022-12-07T04:05:19;100418.00;;;11.00
21336;BMP180;10826;52.536;13.432;2022-12-07T04:07:45;100458.00;;;11.00
21336;BMP180;10826;52.536;13.432;2022-12-07T04:10:11;100451.00;;;11.00
21336;BMP180;10826;52.536;13.432;2022-12-07T04:12:37;100457.00;;;11.00
21336;BMP180;10826;52.536;13.432;2022-12-07T04:15:04;100455.00;;;11.00
21336;BMP180;10826;52.536;13.432;2022-12-07T04:17:30;100440.00;;;11.00
21336;BMP180;10826;52.536;13.432;2022-12-07T04:19:56;100449.00;;;11.10
21336;BMP180;10826;52.536;13.432;2022-12-07T04:22:22;100443.00;;;11.10
21336;BMP180;10826;52.536;13.432;2022-12-07T04:24:48;100451.00;;;11.00
21336;BMP180;10826;52.536;13.432;2022-12-07T04:27:13;100432.00;;;11.00
21336;BMP180;10826;52.536;13.432;2022-12-07T04:29:39;100435.00;;;11.00
21336;BMP180;10826;52.536;13.432;2022-12-07T04:32:05;100436.00;;;11.00
21336;BMP180;10826;52.536;13.432;2022-12-07T04:34:31;100432.00;;;11.00
21336;BMP180;10826;52.536;13.432;2022-12-07T04:36:57;100430.00;;;11.00
21336;BMP180;10826;52.536;13.432;2022-12-07T04:39:28;100415.00;;;11.00
21336;BMP180;10826;52.536;13.432;2022-12-07T04:41:54;100412.00;;;10.90
21336;BMP180;10826;52.536;13.432;2022-12-07T04:44:21;100416.00;;;11.00
21336;BMP180;10826;52.536;13.432;2022-12-07T04:46:48;100412.00;;;10.90
21336;BMP180;10826;52.536;13.432;2022-12-07T04:49:16;100417.00;;;10.90
21336;BMP180;10826;52.536;13.432;2022-12-07T04:51:43;100424.00;;;10.90
21336;BMP180;10826;52.536;13.432;2022-12-07T04:54:09;100419.00;;;10.90
21336;BMP180;10826;52.536;13.432;2022-12-07T04:56:36;100412.00;;;10.90
21336;BMP180;10826;52.536;13.432;2022-12-07T04:59:03;100415.00;;;10.90
21336;BMP180;10826;52.536;13.432;2022-12-07T05:01:30;100404.00;;;10.90
21336;BMP180;10826;52.536;13.432;2022-12-07T05:03:56;100395.00;;;10.90
21336;BMP180;10826;52.536;13.432;2022-12-07T05:06:22;100410.00;;;10.90
21336;BMP180;10826;52.536;13.432;2022-12-07T05:08:48;100405.00;;;10.90
21336;BMP180;10826;52.536;13.432;2022-12-07T05:11:15;100403.00;;;11.00
21336;BMP180;10826;52.536;13.432;2022-12-07T05:14:05;100407.00;;;11.00
21336;BMP180;10826;52.536;13.432;2022-12-07T05:16:31;100394.00;;;11.00
21336;BMP180;10826;52.536;13.432;2022-12-07T05:18:58;100403.00;;;11.00
21336;BMP180;10826;52.536;13.432;2022-12-07T05:21:23;100383.00;;;11.00
21336;BMP180;10826;52.536;13.432;2022-12-07T05:23:49;100382.00;;;11.00
21336;BMP180;10826;52.536;13.432;2022-12-07T05:26:15;100391.00;;;11.00
21336;BMP180;10826;52.536;13.432;2022-12-07T05:28:41;100387.00;;;11.10
21336;BMP180;10826;52.536;13.432;2022-12-07T05:31:07;100379.00;;;11.10
21336;BMP180;10826;52.536;13.432;2022-12-07T05:33:33;100386.00;;;11.10
21336;BMP180;10826;52.536;13.432;2022-12-07T05:35:59;100386.00;;;11.10
21336;BMP180;10826;52.536;13.432;2022-12-07T05:38:32;100380.00;;;11.10
21336;BMP180;10826;52.536;13.432;2022-12-07T05:41:06;100386.00;;;11.20
21336;BMP180;10826;52.536;13.432;2022-12-07T05:43:33;100382.00;;;11.10
21336;BMP180;10826;52.536;13.432;2022-12-07T05:45:59;100371.00;;;11.20
21336;BMP180;10826;52.536;13.432;2022-12-07T05:48:25;100371.00;;;11.20
21336;BMP180;10826;52.536;13.432;2022-12-07T05:50:52;100368.00;;;11.20
21336;BMP180;10826;52.536;13.432;2022-12-07T05:53:19;100346.00;;;11.30
21336;BMP180;10826;52.536;13.432;2022-12-07T05:55:44;100365.00;;;11.30
21336;BMP180;10826;52.536;13.432;2022-12-07T05:58:10;100361.00;;;11.30
21336;BMP180;10826;52.536;13.432;2022-12-07T06:00:56;100357.00;;;11.30
21336;BMP180;10826;52.536;13.432;2022-12-07T06:03:22;100349.00;;;11.30
21336;BMP180;10826;52.536;13.432;2022-12-07T06:05:49;100322.00;;;11.40
21336;BMP180;10826;52.536;13.432;2022-12-07T06:08:15;100344.00;;;11.40
21336;BMP180;10826;52.536;13.432;2022-12-07T06:10:41;100332.00;;;11.40
21336;BMP180;10826;52.536;13.432;2022-12-07T06:13:08;100335.00;;;11.40
21336;BMP180;10826;52.536;13.432;2022-12-07T06:15:37;100331.00;;;11.40
21336;BMP180;10826;52.536;13.432;2022-12-07T06:18:03;100325.00;;;11.40
21336;BMP180;10826;52.536;13.432;2022-12-07T06:20:29;100321.00;;;11.40
21336;BMP180;10826;52.536;13.432;2022-12-07T06:22:55;100324.00;;;11.50
21336;BMP180;10826;52.536;13.432;2022-12-07T06:25:21;100319.00;;;11.50
21336;BMP180;10826;52.536;13.432;2022-12-07T06:27:46;100326.00;;;11.50
21336;BMP180;10826;52.536;13.432;2022-12-07T06:30:13;100339.00;;;11.50
21336;BMP180;10826;52.536;13.432;2022-12-07T06:32:39;100314.00;;;11.50
21336;BMP180;10826;52.536;13.432;2022-12-07T06:35:05;100316.00;;;11.50
21336;BMP180;10826;52.536;13.432;2022-12-07T06:37:31;100332.00;;;11.50
21336;BMP180;10826;52.536;13.432;2022-12-07T06:39:57;100316.00;;;11.50
21336;BMP180;10826;52.536;13.432;2022-12-07T06:42:22;100301.00;;;11.50
21336;BMP180;10826;52.536;13.432;2022-12-07T06:44:48;100333.00;;;11.60
21336;BMP180;10826;52.536;13.432;2022-12-07T06:47:14;100322.00;;;11.50
21336;BMP180;10826;52.536;13.432;2022-12-07T06:49:40;100335.00;;;11.50
21336;BMP180;10826;52.536;13.432;2022-12-07T06:52:06;100333.00;;;11.50
21336;BMP180;10826;52.536;13.432;2022-12-07T06:54:32;100316.00;;;11.50
21336;BMP180;10826;52.536;13.432;2022-12-07T06:56:58;100324.00;;;11.50
21336;BMP180;10826;52.536;13.432;2022-12-07T06:59:23;100319.00;;;11.50
21336;BMP180;10826;52.536;13.432;2022-12-07T07:01:49;100323.00;;;11.50
21336;BMP180;10826;52.536;13.432;2022-12-07T07:04:15;100313.00;;;11.50
21336;BMP180;10826;52.536;13.432;2022-12-07T07:06:40;100312.00;;;11.50
21336;BMP180;10826;52.536;13.432;2022-12-07T07:09:07;100304.00;;;11.50
21336;BMP180;10826;52.536;13.432;2022-12-07T07:11:33;100310.00;;;11.50
21336;BMP180;10826;52.536;13.432;2022-12-07T07:13:58;100308.00;;;11.60
21336;BMP180;10826;52.536;13.432;2022-12-07T07:16:29;100312.00;;;11.50
21336;BMP180;10826;52.536;13.432;2022-12-07T07:18:57;100317.00;;;11.60
21336;BMP180;10826;52.536;13.432;2022-12-07T07:21:23;100309.00;;;11.60
21336;BMP180;10826;52.536;13.432;2022-12-07T07:23:48;100324.00;;;11.60
21336;BMP180;10826;52.536;13.432;2022-12-07T07:26:14;100313.00;;;11.60
21336;BMP180;10826;52.536;13.432;2022-12-07T07:28:40;100326.00;;;11.60
21336;BMP180;10826;52.536;13.432;2022-12-07T07:31:05;100312.00;;;11.60
21336;BMP180;10826;52.536;13.432;2022-12-07T07:33:31;100316.00;;;11.60
21336;BMP180;10826;52.536;13.432;2022-12-07T07:35:57;100303.00;;;11.60
21336;BMP180;10826;52.536;13.432;2022-12-07T07:38:23;100309.00;;;11.50
21336;BMP180;10826;52.536;13.432;2022-12-07T07:40:49;100295.00;;;11.50
21336;BMP180;10826;52.536;13.432;2022-12-07T07:43:15;100312.00;;;11.50
21336;BMP180;10826;52.536;13.432;2022-12-07T07:45:41;100318.00;;;11.50
21336;BMP180;10826;52.536;13.432;2022-12-07T07:48:07;100302.00;;;11.50
21336;BMP180;10826;52.536;13.432;2022-12-07T07:50:33;100310.00;;;11.50
21336;BMP180;10826;52.536;13.432;2022-12-07T07:52:59;100315.00;;;11.50
21336;BMP180;10826;52.536;13.432;2022-12-07T07:55:25;100318.00;;;11.50
21336;BMP180;10826;52.536;13.432;2022-12-07T07:57:51;100324.00;;;11.50
21336;BMP180;10826;52.536;13.432;2022-12-07T08:00:17;100318.00;;;11.50
21336;BMP180;10826;52.536;13.432;2022-12-07T08:02:43;100322.00;;;11.50
21336;BMP180;10826;52.536;13.432;2022-12-07T08:05:13;100338.00;;;11.50
21336;BMP180;10826;52.536;13.432;2022-12-07T08:07:40;100326.00;;;11.50
21336;BMP180;10826;52.536;13.432;2022-12-07T08:10:09;100326.00;;;11.50
21336;BMP180;10826;52.536;13.432;2022-12-07T08:12:40;100333.00;;;11.50
21336;BMP180;10826;52.536;13.432;2022-12-07T08:15:28;100332.00;;;11.40
21336;BMP180;10826;52.536;13.432;2022-12-07T08:17:55;100324.00;;;11.50
21336;BMP180;10826;52.536;13.432;2022-12-07T08:20:21;100342.00;;;11.40
21336;BMP180;10826;52.536;13.432;2022-12-07T08:22:47;100335.00;;;11.40
21336;BMP180;10826;52.536;13.432;2022-12-07T08:25:13;100334.00;;;11.40
21336;BMP180;10826;52.536;13.432;2022-12-07T08:27:39;100338.00;;;11.40
21336;BMP180;10826;52.536;13.432;2022-12-07T08:30:06;100348.00;;;11.50
21336;BMP180;10826;52.536;13.432;2022-12-07T08:32:32;100326.00;;;11.50
21336;BMP180;10826;52.536;13.432;2022-12-07T08:34:58;100340.00;;;11.50
21336;BMP180;10826;52.536;13.432;2022-12-07T08:37:24;100334.00;;;11.50
21336;BMP180;10826;52.536;13.432;2022-12-07T08:39:50;100342.00;;;11.50
21336;BMP180;10826;52.536;13.432;2022-12-07T08:42:15;100349.00;;;11.50
21336;BMP180;10826;52.536;13.432;2022-12-07T08:44:41;100341.00;;;11.50
21336;BMP180;10826;52.536;13.432;2022-12-07T08:47:08;100340.00;;;11.50
21336;BMP180;10826;52.536;13.432;2022-12-07T08:49:42;100349.00;;;11.60
21336;BMP180;10826;52.536;13.432;2022-12-07T08:52:09;100350.00;;;11.60
21336;BMP180;10826;52.536;13.432;2022-12-07T08:54:38;100344.00;;;11.60
21336;BMP180;10826;52.536;13.432;2022-12-07T08:57:05;100349.00;;;11.50
21336;BMP180;10826;52.536;13.432;2022-12-07T08:59:34;100352.00;;;11.60
21336;BMP180;10826;52.536;13.432;2022-12-07T09:02:01;100357.00;;;11.50
21336;BMP180;10826;52.536;13.432;2022-12-07T09:04:27;100363.00;;;11.50
21336;BMP180;10826;52.536;13.432;2022-12-07T09:06:54;100369.00;;;11.50
21336;BMP180;10826;52.536;13.432;2022-12-07T09:09:20;100367.00;;;11.60
21336;BMP180;10826;52.536;13.432;2022-12-07T09:11:46;100352.00;;;11.60
21336;BMP180;10826;52.536;13.432;2022-12-07T09:14:12;100358.00;;;11.50
21336;BMP180;10826;52.536;13.432;2022-12-07T09:16:39;100361.00;;;11.50
21336;BMP180;10826;52.536;13.432;2022-12-07T09:19:05;100374.00;;;11.50
21336;BMP180;10826;52.536;13.432;2022-12-07T09:21:31;100381.00;;;11.50
21336;BMP180;10826;52.536;13.432;2022-12-07T09:23:56;100382.00;;;11.50
21336;BMP180;10826;52.536;13.432;2022-12-07T09:26:22;100364.00;;;11.50
21336;BMP180;10826;52.536;13.432;2022-12-07T09:28:48;100385.00;;;11.50
21336;BMP180;10826;52.536;13.432;2022-12-07T09:31:14;100379.00;;;11.50
21336;BMP180;10826;52.536;13.432;2022-12-07T09:33:40;100386.00;;;11.50
21336;BMP180;10826;52.536;13.432;2022-12-07T09:36:07;100384.00;;;11.40
21336;BMP180;10826;52.536;13.432;2022-12-07T09:38:34;100400.00;;;11.40
21336;BMP180;10826;52.536;13.432;2022-12-07T09:41:05;100395.00;;;11.30
21336;BMP180;10826;52.536;13.432;2022-12-07T09:43:35;100391.00;;;11.30
21336;BMP180;10826;52.536;13.432;2022-12-07T09:46:01;100389.00;;;11.30
21336;BMP180;10826;52.536;13.432;2022-12-07T09:48:34;100395.00;;;11.40
21336;BMP180;10826;52.536;13.432;2022-12-07T09:51:03;100407.00;;;11.40
21336;BMP180;10826;52.536;13.432;2022-12-07T09:53:39;100403.00;;;11.40
21336;BMP180;10826;52.536;13.432;2022-12-07T09:56:05;100398.00;;;11.40
21336;BMP180;10826;52.536;13.432;2022-12-07T09:58:33;100410.00;;;11.50
21336;BMP180;10826;52.536;13.432;2022-12-07T10:01:14;100395.00;;;11.50
21336;BMP180;10826;52.536;13.432;2022-12-07T10:03:49;100406.00;;;11.40
21336;BMP180;10826;52.536;13.432;2022-12-07T10:06:17;100408.00;;;11.30
21336;BMP180;10826;52.536;13.432;2022-12-07T10:08:43;100399.00;;;11.30
21336;BMP180;10826;52.536;13.432;2022-12-07T10:11:10;100399.00;;;11.30
21336;BMP180;10826;52.536;13.432;2022-12-07T10:13:42;100408.00;;;11.20
21336;BMP180;10826;52.536;13.432;2022-12-07T10:16:40;100409.00;;;11.30
21336;BMP180;10826;52.536;13.432;2022-12-07T10:19:30;100399.00;;;11.30
21336;BMP180;10826;52.536;13.432;2022-12-07T10:22:16;100401.00;;;11.30
21336;BMP180;10826;52.536;13.432;2022-12-07T10:24:46;100397.00;;;11.40
21336;BMP180;10826;52.536;13.432;2022-12-07T10:27:32;100406.00;;;11.40
21336;BMP180;10826;52.536;13.432;2022-12-07T10:29:59;100391.00;;;11.30
21336;BMP180;10826;52.536;13.432;2022-12-07T10:32:35;100391.00;;;11.30
21336;BMP180;10826;52.536;13.432;2022-12-07T10:35:24;100400.00;;;11.30
21336;BMP180;10826;52.536;13.432;2022-12-07T10:37:53;100400.00;;;11.30
21336;BMP180;10826;52.536;13.432;2022-12-07T10:40:32;100400.00;;;11.30
21336;BMP180;10826;52.536;13.432;2022-12-07T10:43:12;100412.00;;;11.30
21336;BMP180;10826;52.536;13.432;2022-12-07T10:48:38;100391.00;;;11.30
21336;BMP180;10826;52.536;13.432;2022-12-07T10:51:33;100397.00;;;11.40
21336;BMP180;10826;52.536;13.432;2022-12-07T11:00:23;100387.00;;;11.30
21336;BMP180;10826;52.536;13.432;2022-12-07T11:03:25;100392.00;;;11.40
21336;BMP180;10826;52.536;13.432;2022-12-07T11:11:59;100398.00;;;11.40
21336;BMP180;10826;52.536;13.432;2022-12-07T11:20:05;100390.00;;;11.50
21336;BMP180;10826;52.536;13.432;2022-12-07T11:23:11;100386.00;;;11.60
21336;BMP180;10826;52.536;13.432;2022-12-07T11:35:05;100367.00;;;11.80
21336;BMP180;10826;52.536;13.432;2022-12-07T11:37:37;100365.00;;;11.80
21336;BMP180;10826;52.536;13.432;2022-12-07T11:40:24;100371.00;;;11.70
21336;BMP180;10826;52.536;13.432;2022-12-07T11:43:21;100376.00;;;11.80
21336;BMP180;10826;52.536;13.432;2022-12-07T11:46:13;100369.00;;;11.80
21336;BMP180;10826;52.536;13.432;2022-12-07T11:49:07;100378.00;;;11.80
21336;BMP180;10826;52.536;13.432;2022-12-07T11:51:38;100367.00;;;11.80
21336;BMP180;10826;52.536;13.432;2022-12-07T11:54:30;100370.00;;;11.80
21336;BMP180;10826;52.536;13.432;2022-12-07T11:57:04;100350.00;;;11.80
21336;BMP180;10826;52.536;13.432;2022-12-07T11:59:45;100371.00;;;11.80
21336;BMP180;10826;52.536;13.432;2022-12-07T12:02:55;100364.00;;;11.90
21336;BMP180;10826;52.536;13.432;2022-12-07T12:05:25;100371.00;;;11.90
21336;BMP180;10826;52.536;13.432;2022-12-07T12:11:02;100368.00;;;12.00
21336;BMP180;10826;52.536;13.432;2022-12-07T12:16:51;100310.00;;;12.20
21336;BMP180;10826;52.536;13.432;2022-12-07T12:19:40;100340.00;;;12.20
21336;BMP180;10826;52.536;13.432;2022-12-07T12:22:18;100341.00;;;12.20
21336;BMP180;10826;52.536;13.432;2022-12-07T12:24:52;100342.00;;;12.20
21336;BMP180;10826;52.536;13.432;2022-12-07T12:27:27;100346.00;;;12.20
21336;BMP180;10826;52.536;13.432;2022-12-07T12:30:01;100343.00;;;12.30
21336;BMP180;10826;52.536;13.432;2022-12-07T12:32:41;100342.00;;;12.40
21336;BMP180;10826;52.536;13.432;2022-12-07T12:38:24;100339.00;;;12.50
21336;BMP180;10826;52.536;13.432;2022-12-07T12:40:50;100331.00;;;12.40
21336;BMP180;10826;52.536;13.432;2022-12-07T12:54:29;100334.00;;;12.40
21336;BMP180;10826;52.536;13.432;2022-12-07T12:57:30;100339.00;;;12.50
21336;BMP180;10826;52.536;13.432;2022-12-07T13:00:00;100332.00;;;12.30
21336;BMP180;10826;52.536;13.432;2022-12-07T13:02:35;100331.00;;;12.40
21336;BMP180;10826;52.536;13.432;2022-12-07T13:05:19;100335.00;;;12.40
21336;BMP180;10826;52.536;13.432;2022-12-07T13:07:57;100318.00;;;12.30
21336;BMP180;10826;52.536;13.432;2022-12-07T13:13:03;100341.00;;;12.30
21336;BMP180;10826;52.536;13.432;2022-12-07T13:15:39;100340.00;;;12.30
21336;BMP180;10826;52.536;13.432;2022-12-07T13:29:17;100339.00;;;12.20
21336;BMP180;10826;52.536;13.432;2022-12-07T13:31:52;100310.00;;;12.20
21336;BMP180;10826;52.536;13.432;2022-12-07T13:34:41;100316.00;;;12.20
21336;BMP180;10826;52.536;13.432;2022-12-07T13:37:30;100332.00;;;12.20
21336;BMP180;10826;52.536;13.432;2022-12-07T13:40:01;100325.00;;;12.20
21336;BMP180;10826;52.536;13.432;2022-12-07T13:42:40;100324.00;;;12.10
21336;BMP180;10826;52.536;13.432;2022-12-07T13:45:33;100330.00;;;12.20
21336;BMP180;10826;52.536;13.432;2022-12-07T13:48:41;100309.00;;;12.10
21336;BMP180;10826;52.536;13.432;2022-12-07T13:51:25;100320.00;;;12.20
21336;BMP180;10826;52.536;13.432;2022-12-07T13:53:55;100331.00;;;12.20
21336;BMP180;10826;52.536;13.432;2022-12-07T13:56:27;100340.00;;;12.20
21336;BMP180;10826;52.536;13.432;2022-12-07T13:58:55;100326.00;;;12.20
21336;BMP180;10826;52.536;13.432;2022-12-07T14:01:21;100333.00;;;12.20
21336;BMP180;10826;52.536;13.432;2022-12-07T14:03:46;100323.00;;;12.10
21336;BMP180;10826;52.536;13.432;2022-12-07T14:06:30;100292.00;;;12.20
21336;BMP180;10826;52.536;13.432;2022-12-07T14:09:24;100339.00;;;12.20
21336;BMP180;10826;52.536;13.432;2022-12-07T14:11:54;100332.00;;;12.10
21336;BMP180;10826;52.536;13.432;2022-12-07T14:17:12;100311.00;;;12.00
21336;BMP180;10826;52.536;13.432;2022-12-07T14:19:56;100321.00;;;11.90
21336;BMP180;10826;52.536;13.432;2022-12-07T14:22:26;100339.00;;;11.90
21336;BMP180;10826;52.536;13.432;2022-12-07T14:25:20;100325.00;;;11.90
21336;BMP180;10826;52.536;13.432;2022-12-07T14:27:59;100332.00;;;11.90
21336;BMP180;10826;52.536;13.432;2022-12-07T14:30:30;100335.00;;;11.80
21336;BMP180;10826;52.536;13.432;2022-12-07T14:33:02;100323.00;;;11.80
21336;BMP180;10826;52.536;13.432;2022-12-07T14:35:31;100317.00;;;11.70
21336;BMP180;10826;52.536;13.432;2022-12-07T14:37:57;100303.00;;;11.80
21336;BMP180;10826;52.536;13.432;2022-12-07T14:40:27;100304.00;;;11.80
21336;BMP180;10826;52.536;13.432;2022-12-07T14:43:05;100311.00;;;11.80
21336;BMP180;10826;52.536;13.432;2022-12-07T14:45:32;100309.00;;;11.80
21336;BMP180;10826;52.536;13.432;2022-12-07T14:47:58;100298.00;;;11.80
21336;BMP180;10826;52.536;13.432;2022-12-07T14:50:24;100308.00;;;11.80
21336;BMP180;10826;52.536;13.432;2022-12-07T14:53:06;100310.00;;;11.90
21336;BMP180;10826;52.536;13.432;2022-12-07T14:55:35;100317.00;;;11.80
21336;BMP180;10826;52.536;13.432;2022-12-07T14:58:02;100310.00;;;11.80
21336;BMP180;10826;52.536;13.432;2022-12-07T15:00:28;100317.00;;;11.80
21336;BMP180;10826;52.536;13.432;2022-12-07T15:02:56;100303.00;;;11.80
21336;BMP180;10826;52.536;13.432;2022-12-07T15:05:22;100300.00;;;11.70
21336;BMP180;10826;52.536;13.432;2022-12-07T15:07:49;100320.00;;;11.70
21336;BMP180;10826;52.536;13.432;2022-12-07T15:10:25;100303.00;;;11.60
21336;BMP180;10826;52.536;13.432;2022-12-07T15:13:00;100320.00;;;11.40
21336;BMP180;10826;52.536;13.432;2022-12-07T15:15:51;100311.00;;;11.60
21336;BMP180;10826;52.536;13.432;2022-12-07T15:18:19;100306.00;;;11.50
21336;BMP180;10826;52.536;13.432;2022-12-07T15:20:46;100313.00;;;11.40
21336;BMP180;10826;52.536;13.432;2022-12-07T15:23:13;100313.00;;;11.40
21336;BMP180;10826;52.536;13.432;2022-12-07T15:25:45;100311.00;;;11.40
21336;BMP180;10826;52.536;13.432;2022-12-07T15:28:11;100315.00;;;11.30
21336;BMP180;10826;52.536;13.432;2022-12-07T15:30:38;100310.00;;;11.30
21336;BMP180;10826;52.536;13.432;2022-12-07T15:33:04;100309.00;;;11.30
21336;BMP180;10826;52.536;13.432;2022-12-07T15:35:30;100292.00;;;11.20
21336;BMP180;10826;52.536;13.432;2022-12-07T15:37:56;100297.00;;;11.20
21336;BMP180;10826;52.536;13.432;2022-12-07T15:40:22;100315.00;;;11.20
21336;BMP180;10826;52.536;13.432;2022-12-07T15:42:47;100294.00;;;11.10
21336;BMP180;10826;52.536;13.432;2022-12-07T15:45:13;100309.00;;;11.10
21336;BMP180;10826;52.536;13.432;2022-12-07T15:47:43;100306.00;;;11.10
21336;BMP180;10826;52.536;13.432;2022-12-07T15:50:15;100309.00;;;11.10